createdAt,value
2022-11-24T00:01:10.945Z,0.50
2022-11-24T00:06:18.163Z,0.50
2022-11-24T00:11:29.804Z,0.60
2022-11-24T00:16:37.877Z,0.60
2022-11-24T00:21:43.597Z,0.50
2022-11-24T00:26:49.557Z,0.60
2022-11-24T00:31:55.207Z,0.60
2022-11-24T00:37:02.414Z,0.60
2022-11-24T00:42:08.029Z,0.60
2022-11-24T00:47:14.120Z,0.60
2022-11-24T00:52:20.415Z,0.60
2022-11-24T00:57:26.059Z,0.50
2022-11-24T01:02:31.761Z,0.50
2022-11-24T01:07:37.650Z,0.50
2022-11-24T01:12:43.364Z,0.50
2022-11-24T01:17:49.530Z,0.50
2022-11-24T01:22:55.237Z,0.50
2022-11-24T01:28:00.940Z,0.60
2022-11-24T01:33:06.637Z,0.50
2022-11-24T01:38:12.334Z,0.50
2022-11-24T01:43:20.993Z,0.50
2022-11-24T01:48:32.461Z,0.50
2022-11-24T01:53:40.225Z,0.50
2022-11-24T01:58:48.118Z,0.50
2022-11-24T02:03:54.583Z,0.60
2022-11-24T02:09:03.334Z,0.50
2022-11-24T02:14:11.653Z,0.50
2022-11-24T02:19:38.040Z,0.50
2022-11-24T02:24:46.673Z,0.40
2022-11-24T02:29:52.750Z,0.40
2022-11-24T02:35:06.773Z,0.30
2022-11-24T02:40:14.207Z,0.30
2022-11-24T02:45:19.979Z,0.30
2022-11-24T02:50:26.281Z,0.30
2022-11-24T02:55:31.958Z,0.40
2022-11-24T03:00:37.706Z,0.40
2022-11-24T03:05:44.321Z,0.50
2022-11-24T03:10:50.178Z,0.40
2022-11-24T03:16:01.693Z,0.40
2022-11-24T03:21:08.101Z,0.40
2022-11-24T03:26:17.064Z,0.40
2022-11-24T03:31:23.301Z,0.40
2022-11-24T03:36:29.371Z,0.40
2022-11-24T03:41:35.074Z,0.40
2022-11-24T03:46:41.011Z,0.40
2022-11-24T03:51:46.739Z,0.50
2022-11-24T03:56:52.492Z,0.50
2022-11-24T04:01:58.819Z,0.50
2022-11-24T04:07:04.555Z,0.50
2022-11-24T04:12:29.148Z,0.50
2022-11-24T04:17:34.788Z,0.40
2022-11-24T04:22:41.278Z,0.50
2022-11-24T04:27:50.959Z,0.50
2022-11-24T04:32:57.856Z,0.30
2022-11-24T04:38:06.284Z,0.30
2022-11-24T04:43:12.960Z,0.30
2022-11-24T04:48:18.608Z,0.40
2022-11-24T04:53:24.401Z,0.40
2022-11-24T04:58:30.485Z,0.40
2022-11-24T05:03:37.668Z,0.30
2022-11-24T05:08:43.226Z,0.30
2022-11-24T05:13:48.747Z,0.30
2022-11-24T05:18:54.345Z,0.30
2022-11-24T05:24:00.029Z,0.30
2022-11-24T05:29:05.772Z,0.40
2022-11-24T05:34:11.374Z,0.40
2022-11-24T05:39:16.970Z,0.40
2022-11-24T05:44:23.687Z,0.30
2022-11-24T05:49:30.777Z,0.40
2022-11-24T05:54:36.503Z,0.30
2022-11-24T05:59:42.358Z,0.40
2022-11-24T06:04:48.704Z,0.40
2022-11-24T06:09:54.086Z,0.40
2022-11-24T06:14:59.510Z,0.40
2022-11-24T06:20:06.219Z,0.40
2022-11-24T06:25:12.062Z,0.50
2022-11-24T06:30:17.735Z,0.50
2022-11-24T06:35:23.237Z,0.50
2022-11-24T06:40:28.975Z,0.50
2022-11-24T06:45:34.478Z,0.50
2022-11-24T06:50:39.785Z,0.40
2022-11-24T06:55:46.145Z,0.40
2022-11-24T07:00:52.219Z,0.40
2022-11-24T07:05:58.815Z,0.40
2022-11-24T07:11:08.765Z,0.50
2022-11-24T07:16:16.686Z,0.50
2022-11-24T07:21:23.632Z,0.60
2022-11-24T07:26:30.941Z,0.70
2022-11-24T07:31:36.251Z,0.70
2022-11-24T07:36:45.450Z,0.70
2022-11-24T07:41:50.665Z,0.60
2022-11-24T07:46:55.972Z,0.60
2022-11-24T07:52:01.825Z,0.70
2022-11-24T07:57:07.106Z,0.70
2022-11-24T08:02:14.576Z,0.70
2022-11-24T08:07:20.149Z,0.70
2022-11-24T08:12:25.553Z,0.60
2022-11-24T08:17:30.913Z,0.50
2022-11-24T08:22:36.735Z,0.50
2022-11-24T08:27:42.102Z,0.60
2022-11-24T08:32:47.365Z,0.60
2022-11-24T08:37:52.949Z,0.70
2022-11-24T08:43:02.051Z,0.70
2022-11-24T08:48:07.540Z,0.70
2022-11-24T08:53:12.902Z,0.70
2022-11-24T08:58:18.790Z,0.70
2022-11-24T09:03:24.114Z,0.80
2022-11-24T09:08:31.579Z,0.70
2022-11-24T09:13:38.188Z,0.80
2022-11-24T09:18:44.509Z,0.90
2022-11-24T09:23:52.115Z,0.70
2022-11-24T09:28:59.210Z,0.70
2022-11-24T09:34:07.274Z,0.90
2022-11-24T09:39:13.146Z,0.90
2022-11-24T09:44:33.440Z,1.00
2022-11-24T09:49:51.212Z,1.00
2022-11-24T09:54:57.391Z,1.10
2022-11-24T10:00:05.853Z,1.00
2022-11-24T10:05:13.568Z,1.00
2022-11-24T10:10:28.358Z,1.10
2022-11-24T10:15:56.524Z,1.20
2022-11-24T10:21:20.855Z,1.10
2022-11-24T10:26:38.147Z,1.20
2022-11-24T10:31:46.431Z,1.20
2022-11-24T10:37:04.127Z,1.10
2022-11-24T10:42:29.192Z,1.30
2022-11-24T10:47:34.502Z,1.30
2022-11-24T10:52:43.030Z,1.40
2022-11-24T10:57:48.370Z,1.40
2022-11-24T11:02:56.707Z,1.40
2022-11-24T11:08:22.317Z,1.40
2022-11-24T11:13:32.563Z,1.40
2022-11-24T11:18:37.888Z,1.50
2022-11-24T11:23:45.614Z,1.50
2022-11-24T11:34:23.230Z,1.50
2022-11-24T11:39:43.862Z,1.60
2022-11-24T11:44:49.914Z,1.60
2022-11-24T11:49:55.625Z,1.60
2022-11-24T11:55:26.630Z,1.70
2022-11-24T12:00:35.180Z,1.70
2022-11-24T12:05:52.883Z,1.60
2022-11-24T12:11:13.217Z,1.50
2022-11-24T12:16:31.251Z,1.50
2022-11-24T12:21:54.349Z,1.50
2022-11-24T12:27:07.994Z,1.50
2022-11-24T12:32:20.076Z,1.50
2022-11-24T12:37:40.454Z,1.50
2022-11-24T12:42:51.721Z,1.50
2022-11-24T12:48:05.406Z,1.30
2022-11-24T12:53:25.502Z,1.20
2022-11-24T12:58:39.706Z,1.20
2022-11-24T13:04:02.763Z,1.20
2022-11-24T13:09:12.283Z,1.30
2022-11-24T13:14:35.247Z,1.30
2022-11-24T13:19:41.003Z,1.30
2022-11-24T13:24:46.946Z,1.30
2022-11-24T13:29:53.968Z,1.40
2022-11-24T13:35:07.967Z,1.30
2022-11-24T13:40:17.848Z,1.30
2022-11-24T13:45:46.170Z,1.20
2022-11-24T13:50:54.417Z,1.20
2022-11-24T13:56:02.610Z,1.20
2022-11-24T14:01:16.125Z,1.20
2022-11-24T14:06:26.912Z,1.30
2022-11-24T14:11:32.138Z,1.20
2022-11-24T14:16:46.870Z,1.20
2022-11-24T14:21:50.493Z,1.10
2022-11-24T14:26:55.928Z,1.10
2022-11-24T14:32:05.586Z,1.10
2022-11-24T14:37:11.669Z,1.10
2022-11-24T14:42:28.569Z,1.20
2022-11-24T14:47:38.971Z,1.20
2022-11-24T14:52:46.982Z,1.20
2022-11-24T14:57:52.946Z,1.20
2022-11-24T15:03:04.199Z,1.10
2022-11-24T15:08:13.784Z,1.10
2022-11-24T15:13:24.677Z,1.10
2022-11-24T15:18:40.527Z,1.10
2022-11-24T15:24:08.183Z,1.10
2022-11-24T15:29:14.624Z,1.10
2022-11-24T15:34:20.082Z,1.10
2022-11-24T15:39:25.524Z,1.10
2022-11-24T15:44:32.900Z,1.10
2022-11-24T15:49:38.860Z,1.10
2022-11-24T15:54:59.130Z,1.10
2022-11-24T16:00:11.615Z,1.10
2022-11-24T16:05:18.793Z,1.00
2022-11-24T16:10:33.686Z,1.00
2022-11-24T16:15:39.334Z,1.10
2022-11-24T16:20:44.784Z,1.00
2022-11-24T16:25:50.907Z,1.00
2022-11-24T16:30:56.204Z,1.00
2022-11-24T16:36:01.590Z,1.00
2022-11-24T16:41:10.786Z,1.00
2022-11-24T16:46:21.401Z,1.00
2022-11-24T16:51:34.391Z,1.00
2022-11-24T16:56:55.361Z,1.10
2022-11-24T17:02:20.489Z,1.10
2022-11-24T17:07:31.905Z,1.10
2022-11-24T17:12:41.545Z,1.10
2022-11-24T17:18:24.007Z,1.10
2022-11-24T17:23:35.455Z,1.10
2022-11-24T17:28:41.218Z,1.10
2022-11-24T17:33:46.464Z,1.10
2022-11-24T17:38:51.895Z,1.10
2022-11-24T17:43:58.230Z,1.10
2022-11-24T17:49:03.559Z,1.10
2022-11-24T17:54:44.806Z,1.10
2022-11-24T17:59:15.688Z,1.10
2022-11-24T18:04:21.267Z,1.10
2022-11-24T18:09:38.941Z,1.10
2022-11-24T18:14:45.139Z,1.10
2022-11-24T18:19:50.533Z,1.10
2022-11-24T18:24:55.761Z,1.10
2022-11-24T18:30:00.914Z,1.10
2022-11-24T18:35:06.744Z,1.10
2022-11-24T18:40:12.152Z,1.10
2022-11-24T18:45:18.017Z,1.10
2022-11-24T18:50:23.401Z,1.20
2022-11-24T18:55:28.661Z,1.20
2022-11-24T19:00:34.533Z,1.20
2022-11-24T19:05:41.526Z,1.20
2022-11-24T19:10:46.907Z,1.20
2022-11-24T19:15:52.336Z,1.10
2022-11-24T19:20:59.178Z,1.10
2022-11-24T19:26:05.339Z,1.10
2022-11-24T19:31:13.537Z,1.10
2022-11-24T19:36:20.907Z,1.00
2022-11-24T19:41:29.099Z,1.00
2022-11-24T19:46:34.331Z,1.00
2022-11-24T19:51:41.062Z,1.00
2022-11-24T19:56:46.211Z,1.10
2022-11-24T20:01:51.630Z,1.10
2022-11-24T20:06:57.366Z,1.10
2022-11-24T20:12:03.096Z,1.10
2022-11-24T20:17:08.376Z,1.10
2022-11-24T20:22:13.555Z,1.20
2022-11-24T20:27:20.173Z,1.20
2022-11-24T20:32:25.527Z,1.20
2022-11-24T20:42:53.408Z,1.10
2022-11-24T20:47:59.022Z,1.20
2022-11-24T20:53:04.289Z,1.20
2022-11-24T20:58:09.556Z,1.20
2022-11-24T21:03:14.861Z,1.10
2022-11-24T21:08:20.486Z,1.10
2022-11-24T21:13:26.497Z,1.10
2022-11-24T21:18:31.648Z,1.10
2022-11-24T21:23:37.320Z,1.10
2022-11-24T21:28:44.205Z,1.10
2022-11-24T21:33:51.708Z,1.10
2022-11-24T21:38:58.867Z,1.10
2022-11-24T21:44:04.175Z,1.10
2022-11-24T21:49:09.293Z,1.10
2022-11-24T21:54:14.557Z,1.10
2022-11-24T21:59:22.317Z,1.10
2022-11-24T22:04:28.100Z,1.10
2022-11-24T22:09:34.040Z,1.10
2022-11-24T22:14:40.704Z,1.00
2022-11-24T22:19:46.096Z,1.00
2022-11-24T22:24:51.442Z,1.00
2022-11-24T22:29:57.143Z,1.00
2022-11-24T22:35:02.342Z,1.00
2022-11-24T22:40:09.248Z,1.00
2022-11-24T22:45:16.056Z,1.10
2022-11-24T22:50:21.276Z,1.00
2022-11-24T22:55:26.556Z,1.00
2022-11-24T23:00:31.832Z,1.00
2022-11-24T23:05:37.196Z,1.00
2022-11-24T23:10:42.566Z,1.00
2022-11-24T23:15:47.954Z,1.00
2022-11-24T23:20:53.350Z,1.00
2022-11-24T23:26:03.680Z,0.90
2022-11-24T23:31:11.937Z,1.00
2022-11-24T23:36:19.908Z,1.00
2022-11-24T23:41:28.302Z,0.90
2022-11-24T23:46:33.794Z,0.90
2022-11-24T23:51:40.721Z,0.90
2022-11-24T23:56:52.391Z,0.90
